首页
METAR-TAF:

METAR-TAF

机场 :

Decorah Municipal Airport

Decorah, 艾奥瓦州, 美国

纬度: 43-17N, 经度: 091-44W, 海拔: 353米

当前天气观测

该预报发布于10分钟前的01:15 UTC
风速11节,风向,有时为18节阵风
温度 2°C
湿度 80%
气压 1015 hPa
能見度: 16.1公里
天空无云

METAR: KDEH 080115Z AUTO 18011G18KT 10SM CLR 02/M01 A2997 RMK AO2

时间: 19:25 (01:25 UTC)


TAF: 丢失

超过4000个机场的气象观测和天气预报(METAR&TAF报告)。

可查询的气象台以黄色和红色小点在地图上表示。

将鼠标移到小点上方,可查看气象台名称。

然后点击查看天气观测和预报。

如需切换地图:点击带黑十字的绿色按钮放大地图;点击带横线的绿色按钮缩小地图;或者点击绿色箭头查看邻近地区的地图。


METAR-TAF: